Time;durP1;ratioP1;P1;durP2;ratioP2;P2;SDS_P1;SDS_P2;PMS_P1;PMS_P2;Temp;Humidity;BMP_temperature;BMP_pressure;BME280_temperature;BME280_humidity;BME280_pressure;Samples;Min_cycle;Max_cycle;Signal;HPM_P1;HPM_P2
2024/02/26 00:01:10;;;;;;;1.08;0.95;;;;;;;8.91;45.76;98416.56;2503403;28;20047;-80
2024/02/26 00:02:24;;;;;;;2.38;1.80;;;;;;;8.88;45.85;98420.13;2503208;28;20047;-80
2024/02/26 00:03:38;;;;;;;3.88;1.80;;;;;;;8.86;45.94;98418.50;2502683;28;20393;-80
2024/02/26 00:04:53;;;;;;;1.65;1.30;;;;;;;8.85;46.19;98417.63;2503255;28;20074;-79
2024/02/26 00:06:06;;;;;;;1.45;1.23;;;;;;;8.83;46.55;98426.38;2503485;28;20051;-79
2024/02/26 00:07:21;;;;;;;2.90;2.22;;;;;;;8.80;46.55;98424.75;2502898;28;20134;-80
2024/02/26 00:08:34;;;;;;;4.50;1.20;;;;;;;8.76;47.15;98423.19;2504496;28;20046;-80
2024/02/26 00:09:49;;;;;;;1.65;1.27;;;;;;;8.72;47.48;98435.47;2506807;28;20050;-80
2024/02/26 00:11:02;;;;;;;2.40;1.67;;;;;;;8.68;47.34;98433.88;2514506;28;20027;-80
2024/02/26 00:12:17;;;;;;;1.63;1.52;;;;;;;8.65;47.99;98433.97;2509725;28;20038;-80
2024/02/26 00:13:30;;;;;;;1.55;1.45;;;;;;;8.63;48.13;98425.38;2495141;28;20172;-80
2024/02/26 00:14:46;;;;;;;2.20;2.00;;;;;;;8.58;47.83;98427.31;2502683;28;20668;-80
2024/02/26 00:16:00;;;;;;;2.42;1.95;;;;;;;8.52;48.43;98437.94;2503157;28;20489;-80
2024/02/26 00:17:16;;;;;;;2.38;1.65;;;;;;;8.50;48.34;98427.56;2502944;28;20054;-79
2024/02/26 00:18:29;;;;;;;1.80;1.42;;;;;;;8.50;48.55;98435.38;2502601;28;20054;-79
2024/02/26 00:19:44;;;;;;;1.77;1.38;;;;;;;8.49;49.36;98430.22;2502638;28;20520;-79
2024/02/26 00:22:14;;;;;;;4.15;2.20;;;;;;;8.47;50.25;98442.44;2513341;28;20043;-82
2024/02/26 00:23:27;;;;;;;1.65;1.35;;;;;;;8.46;51.07;98444.19;2515912;28;20058;-83
2024/02/26 00:24:42;;;;;;;1.80;1.70;;;;;;;8.44;51.58;98446.00;2516628;28;20061;-84
2024/02/26 00:25:55;;;;;;;1.67;1.50;;;;;;;8.42;51.93;98444.38;2516772;28;20065;-83
2024/02/26 00:27:10;;;;;;;1.73;1.48;;;;;;;8.41;51.88;98448.69;2516659;28;20050;-83
2024/02/26 00:28:24;;;;;;;1.65;1.55;;;;;;;8.40;51.74;98452.19;2519806;28;20038;-81
2024/02/26 00:29:39;;;;;;;3.42;1.48;;;;;;;8.41;51.51;98453.03;2524699;28;20086;-83
2024/02/26 00:30:55;;;;;;;1.85;1.50;;;;;;;8.40;52.15;98453.97;2514427;28;20054;-85
2024/02/26 00:32:10;;;;;;;2.05;1.42;;;;;;;8.39;53.11;98455.72;2515156;28;20075;-83
2024/02/26 00:33:25;;;;;;;1.27;1.15;;;;;;;8.38;53.23;98453.13;2506906;28;20055;-85
2024/02/26 00:34:39;;;;;;;2.38;1.50;;;;;;;8.37;52.53;98451.44;2515007;28;20058;-85
2024/02/26 00:35:52;;;;;;;3.00;1.40;;;;;;;8.36;52.23;98452.31;2514941;28;20360;-86
2024/02/26 00:37:07;;;;;;;1.88;1.67;;;;;;;8.35;52.18;98454.06;2515977;28;20048;-83
2024/02/26 00:38:20;;;;;;;2.42;1.77;;;;;;;8.34;52.07;98455.00;2514732;28;20054;-84
2024/02/26 00:39:35;;;;;;;1.23;1.13;;;;;;;8.33;52.55;98455.03;2513163;28;20114;-84
2024/02/26 00:40:48;;;;;;;2.25;1.52;;;;;;;8.32;53.19;98453.34;2505141;28;20500;-85
2024/02/26 00:42:03;;;;;;;1.80;1.58;;;;;;;8.30;53.78;98448.19;2511734;28;20050;-84
2024/02/26 00:43:17;;;;;;;1.70;1.48;;;;;;;8.28;54.21;98448.22;2511099;28;20134;-84
2024/02/26 00:44:32;;;;;;;3.92;2.08;;;;;;;8.25;54.61;98447.50;2505713;28;20034;-84
2024/02/26 00:45:46;;;;;;;3.40;1.63;;;;;;;8.24;54.61;98448.41;2509121;28;20054;-83
2024/02/26 00:47:01;;;;;;;3.38;1.25;;;;;;;8.23;54.39;98455.34;2509470;28;20082;-84
2024/02/26 00:48:14;;;;;;;4.25;1.42;;;;;;;8.21;54.34;98451.09;2509664;28;20042;-83
2024/02/26 00:49:30;;;;;;;1.65;1.27;;;;;;;8.20;54.54;98454.59;2514056;28;20471;-85
2024/02/26 00:50:43;;;;;;;2.53;1.58;;;;;;;8.17;54.49;98444.31;2508131;28;20077;-84
2024/02/26 00:51:58;;;;;;;2.17;1.27;;;;;;;8.14;55.05;98444.44;2513745;28;20480;-83
2024/02/26 00:53:11;;;;;;;6.50;1.52;;;;;;;8.11;54.73;98449.75;2507357;28;20163;-83
2024/02/26 00:54:26;;;;;;;1.63;1.30;;;;;;;8.12;54.54;98452.28;2512875;28;20153;-83
2024/02/26 00:55:39;;;;;;;1.73;1.40;;;;;;;8.13;54.84;98453.09;2511991;28;20058;-84
2024/02/26 00:56:54;;;;;;;1.73;1.63;;;;;;;8.13;55.00;98448.78;2508480;28;20051;-83
2024/02/26 00:58:07;;;;;;;1.98;1.30;;;;;;;8.12;54.97;98452.28;2508641;28;20532;-84
2024/02/26 00:59:21;;;;;;;1.30;1.20;;;;;;;8.10;55.37;98446.28;2503437;28;20051;-84
2024/02/26 01:00:35;;;;;;;2.38;1.60;;;;;;;8.09;55.48;98441.97;2507783;28;20046;-83
2024/02/26 01:01:49;;;;;;;2.92;1.30;;;;;;;8.09;56.03;98448.03;2510121;28;20135;-83
2024/02/26 01:03:04;;;;;;;4.10;1.35;;;;;;;8.07;56.54;98448.97;2505304;28;20055;-85
2024/02/26 01:04:19;;;;;;;3.38;1.48;;;;;;;8.06;56.63;98455.94;2510080;28;20476;-84
2024/02/26 01:05:33;;;;;;;3.13;1.77;;;;;;;8.03;56.71;98444.81;2505103;28;20050;-85
2024/02/26 01:06:48;;;;;;;2.75;2.15;;;;;;;8.02;57.20;98461.25;2503906;28;20109;-84
2024/02/26 01:08:02;;;;;;;2.05;1.58;;;;;;;7.99;57.63;98453.59;2505170;28;20055;-84
2024/02/26 01:09:17;;;;;;;2.28;1.70;;;;;;;7.98;57.61;98455.34;2511821;28;20042;-84
2024/02/26 01:10:31;;;;;;;2.35;1.60;;;;;;;7.96;57.62;98471.88;2505150;28;20473;-84
2024/02/26 01:11:46;;;;;;;3.83;1.38;;;;;;;7.94;57.95;98452.88;2504256;28;20051;-82
2024/02/26 01:13:00;;;;;;;1.42;1.30;;;;;;;7.92;58.24;98447.72;2504850;28;20453;-84
2024/02/26 01:14:14;;;;;;;4.10;1.92;;;;;;;7.91;58.25;98453.84;2503907;28;20101;-84
2024/02/26 01:15:28;;;;;;;1.30;1.00;;;;;;;7.92;57.91;98460.72;2504890;28;20047;-83
2024/02/26 01:16:42;;;;;;;1.73;0.88;;;;;;;7.96;57.01;98461.47;2511548;28;20480;-84
2024/02/26 01:17:56;;;;;;;1.83;1.02;;;;;;;8.02;56.45;98461.25;2504409;28;20062;-84
2024/02/26 01:19:10;;;;;;;1.80;0.80;;;;;;;8.06;56.20;98461.13;2504141;28;20051;-84
2024/02/26 01:20:24;;;;;;;0.88;0.70;;;;;;;8.18;55.42;98464.19;2503896;28;20043;-83
2024/02/26 01:21:40;;;;;;;1.67;0.75;;;;;;;8.27;55.43;98461.28;2504466;28;20133;-84
2024/02/26 01:22:53;;;;;;;0.70;0.70;;;;;;;8.38;55.57;98463.53;2503655;28;20046;-83
2024/02/26 01:24:08;;;;;;;1.10;0.80;;;;;;;8.43;55.57;98462.47;2506494;28;20078;-83
2024/02/26 01:25:21;;;;;;;5.47;0.65;;;;;;;8.49;55.80;98466.63;2513577;28;20046;-82
2024/02/26 01:26:36;;;;;;;1.45;0.82;;;;;;;8.52;55.91;98482.97;2512858;28;20046;-82
2024/02/26 01:27:49;;;;;;;0.70;0.70;;;;;;;8.53;56.32;98478.63;2504246;28;20062;-84
2024/02/26 01:29:04;;;;;;;1.00;0.88;;;;;;;8.54;56.67;98474.25;2504751;28;20069;-82
2024/02/26 01:30:17;;;;;;;0.82;0.77;;;;;;;8.51;57.19;98473.47;2504295;28;20054;-82
2024/02/26 01:31:32;;;;;;;1.20;0.60;;;;;;;8.50;57.27;98474.38;2511943;28;20466;-83
2024/02/26 01:32:45;;;;;;;0.60;0.60;;;;;;;8.49;57.70;98470.09;2504178;28;20046;-82
2024/02/26 01:33:59;;;;;;;1.13;1.02;;;;;;;8.51;57.50;98464.81;2504296;28;20038;-84
2024/02/26 01:35:13;;;;;;;0.65;0.65;;;;;;;8.56;57.24;98469.84;2503935;28;20042;-84
2024/02/26 01:36:27;;;;;;;0.50;0.50;;;;;;;8.57;57.61;98469.81;2513099;28;20056;-85
2024/02/26 01:37:42;;;;;;;2.45;0.65;;;;;;;8.60;56.91;98474.91;2512226;28;20058;-82
2024/02/26 01:38:57;;;;;;;0.73;0.70;;;;;;;8.61;57.65;98473.16;2504458;28;20070;-84
2024/02/26 01:40:11;;;;;;;0.52;0.52;;;;;;;8.59;58.37;98480.16;2504411;28;20504;-84
2024/02/26 01:41:26;;;;;;;2.08;0.70;;;;;;;8.55;58.66;98479.41;2503799;28;20109;-84
2024/02/26 01:42:40;;;;;;;0.60;0.60;;;;;;;8.52;58.92;98487.34;2504832;28;20480;-82
2024/02/26 01:43:55;;;;;;;0.60;0.60;;;;;;;8.49;59.30;98492.59;2503926;28;20085;-82
2024/02/26 01:45:15;;;;;;;0.70;0.70;;;;;;;8.47;59.56;98497.03;2505096;28;20413;-83
2024/02/26 01:46:31;;;;;;;1.90;0.50;;;;;;;8.42;59.82;98498.94;2504173;28;20070;-84
2024/02/26 01:47:44;;;;;;;2.03;0.50;;;;;;;8.38;60.35;98492.94;2504731;28;20511;-83
2024/02/26 01:48:59;;;;;;;0.43;0.43;;;;;;;8.35;60.54;98500.03;2504324;28;20047;-83
2024/02/26 01:50:13;;;;;;;0.70;0.70;;;;;;;8.32;60.34;98497.53;2511406;28;20039;-83
2024/02/26 01:51:28;;;;;;;0.90;0.70;;;;;;;8.27;60.49;98502.88;2503886;28;20050;-84
2024/02/26 01:52:43;;;;;;;2.05;0.60;;;;;;;8.27;60.66;98505.47;2504420;28;20051;-82
2024/02/26 01:53:59;;;;;;;0.50;0.50;;;;;;;8.25;60.74;98504.66;2504225;28;20047;-83
2024/02/26 01:55:14;;;;;;;0.80;0.50;;;;;;;8.24;61.06;98502.97;2505801;28;20067;-83
2024/02/26 01:56:31;;;;;;;2.25;0.70;;;;;;;8.22;61.47;98508.22;2505665;28;20078;-81
2024/02/26 01:57:46;;;;;;;0.80;0.75;;;;;;;8.19;61.60;98515.28;2506846;28;20050;-83
2024/02/26 01:59:00;;;;;;;0.82;0.60;;;;;;;8.16;62.03;98512.75;2505452;28;20105;-83
2024/02/26 02:00:14;;;;;;;2.85;0.68;;;;;;;8.14;62.39;98512.81;2506882;28;20062;-83
2024/02/26 02:01:30;;;;;;;0.55;0.40;;;;;;;8.13;62.82;98518.94;2505865;28;20053;-82
2024/02/26 02:02:46;;;;;;;0.60;0.60;;;;;;;8.07;62.94;98512.16;2508148;28;20090;-83
2024/02/26 02:04:01;;;;;;;0.50;0.50;;;;;;;8.02;63.55;98515.81;2510369;28;20050;-82
2024/02/26 02:05:16;;;;;;;0.70;0.70;;;;;;;7.95;63.94;98511.72;2506668;28;20046;-83
2024/02/26 02:06:30;;;;;;;2.08;0.73;;;;;;;7.90;64.43;98514.47;2505950;28;20078;-83
2024/02/26 02:07:46;;;;;;;1.05;0.75;;;;;;;7.84;65.20;98517.25;2505226;28;20696;-82
2024/02/26 02:09:06;;;;;;;0.60;0.60;;;;;;;7.77;65.66;98516.63;2505785;28;20423;-82
2024/02/26 02:10:22;;;;;;;0.50;0.50;;;;;;;7.70;66.33;98507.31;2506732;28;20055;-84
2024/02/26 02:11:37;;;;;;;1.23;0.60;;;;;;;7.65;66.79;98501.41;2505366;28;20575;-82
2024/02/26 02:12:50;;;;;;;0.73;0.73;;;;;;;7.61;67.50;98510.19;2506672;28;20488;-83
2024/02/26 02:14:05;;;;;;;0.73;0.65;;;;;;;7.58;67.88;98507.69;2506124;28;20178;-82
2024/02/26 02:15:19;;;;;;;1.50;0.50;;;;;;;7.56;68.29;98512.06;2505003;28;20043;-81
2024/02/26 02:16:34;;;;;;;0.65;0.65;;;;;;;7.53;68.77;98509.56;2507546;28;20042;-81
2024/02/26 02:17:48;;;;;;;1.95;0.80;;;;;;;7.51;69.29;98512.22;2512333;28;20496;-82
2024/02/26 02:19:02;;;;;;;1.55;0.70;;;;;;;7.49;69.70;98508.00;2506400;28;20039;-81
2024/02/26 02:20:17;;;;;;;2.22;1.02;;;;;;;7.46;70.18;98515.84;2506299;28;20058;-82
2024/02/26 02:21:32;;;;;;;2.72;1.00;;;;;;;7.42;70.45;98515.09;2506419;28;20054;-81
2024/02/26 02:22:46;;;;;;;2.30;1.05;;;;;;;7.39;70.62;98518.63;2508755;28;20054;-83
2024/02/26 02:24:00;;;;;;;2.35;1.10;;;;;;;7.35;71.35;98504.03;2516685;28;20081;-82
2024/02/26 02:25:14;;;;;;;0.82;0.82;;;;;;;7.33;71.24;98507.56;2509189;28;20057;-82
2024/02/26 02:26:28;;;;;;;1.48;1.13;;;;;;;7.28;71.66;98499.94;2506567;28;20043;-82
2024/02/26 02:27:42;;;;;;;1.27;0.90;;;;;;;7.23;71.69;98499.25;2507545;28;20423;-81
2024/02/26 02:28:57;;;;;;;2.50;0.80;;;;;;;7.17;72.11;98509.78;2516151;28;20052;-81
2024/02/26 02:30:11;;;;;;;5.30;1.33;;;;;;;7.10;72.34;98508.25;2507898;28;20074;-81
2024/02/26 02:31:26;;;;;;;0.70;0.70;;;;;;;7.07;72.89;98503.16;2513682;28;20047;-79
2024/02/26 02:32:40;;;;;;;0.95;0.60;;;;;;;7.02;73.09;98500.69;2513571;28;20046;-81
2024/02/26 02:33:54;;;;;;;1.45;1.13;;;;;;;6.98;73.59;98501.69;2505470;28;20051;-80
2024/02/26 02:35:08;;;;;;;1.77;1.13;;;;;;;6.94;74.14;98506.13;2505010;28;20057;-81
2024/02/26 02:36:22;;;;;;;2.35;1.13;;;;;;;6.93;74.38;98508.75;2506050;28;20137;-82
2024/02/26 02:37:37;;;;;;;0.95;0.85;;;;;;;6.90;74.70;98507.09;2513700;28;20046;-81
2024/02/26 02:38:52;;;;;;;1.02;0.73;;;;;;;6.88;75.07;98510.63;2505647;28;20046;-81
2024/02/26 02:40:07;;;;;;;4.53;1.90;;;;;;;6.86;75.40;98512.38;2506300;28;20093;-82
2024/02/26 02:41:21;;;;;;;4.30;1.63;;;;;;;6.86;75.59;98509.81;2506153;28;20058;-81
2024/02/26 02:42:35;;;;;;;2.03;1.08;;;;;;;6.84;75.73;98509.84;2506940;28;20101;-80
2024/02/26 02:43:49;;;;;;;1.42;0.70;;;;;;;6.82;76.00;98505.59;2514924;28;20061;-80
2024/02/26 02:45:03;;;;;;;1.20;1.10;;;;;;;6.80;76.28;98502.19;2515121;28;20050;-80
2024/02/26 02:46:18;;;;;;;3.08;1.20;;;;;;;6.76;76.54;98497.09;2509580;28;20133;-77
2024/02/26 02:47:31;;;;;;;1.25;1.15;;;;;;;6.74;76.68;98506.66;2506955;28;20438;-79
2024/02/26 02:48:46;;;;;;;2.50;1.30;;;;;;;6.71;76.94;98498.97;2513237;28;20054;-80
2024/02/26 02:49:59;;;;;;;2.50;1.20;;;;;;;6.70;77.01;98504.19;2515332;28;20046;-78
2024/02/26 02:51:13;;;;;;;4.80;1.20;;;;;;;6.68;77.11;98493.84;2506677;28;20120;-81
2024/02/26 02:52:27;;;;;;;2.42;1.17;;;;;;;6.67;77.47;98491.31;2514875;28;20043;-81
2024/02/26 02:53:43;;;;;;;1.15;1.10;;;;;;;6.66;77.59;98494.78;2514636;28;20060;-82
2024/02/26 02:54:56;;;;;;;3.90;3.35;;;;;;;6.63;77.75;98490.53;2507374;28;20123;-81
2024/02/26 02:56:10;;;;;;;1.50;1.30;;;;;;;6.60;77.78;98495.81;2507335;28;20059;-81
2024/02/26 02:57:24;;;;;;;0.85;0.85;;;;;;;6.55;77.88;98493.34;2507221;28;20058;-81
2024/02/26 02:58:38;;;;;;;1.73;1.00;;;;;;;6.52;78.06;98490.84;2514943;28;20046;-81
2024/02/26 02:59:52;;;;;;;2.17;1.15;;;;;;;6.50;78.34;98484.84;2510596;28;20054;-81
2024/02/26 03:01:06;;;;;;;1.40;1.13;;;;;;;6.48;78.58;98489.22;2511750;28;20474;-80
2024/02/26 03:02:20;;;;;;;3.10;1.17;;;;;;;6.47;78.61;98489.25;2506246;28;20051;-81
2024/02/26 03:03:35;;;;;;;3.30;1.90;;;;;;;6.45;78.89;98486.69;2505777;28;20047;-80
2024/02/26 03:04:49;;;;;;;1.20;1.10;;;;;;;6.44;78.93;98482.41;2505494;28;20051;-80
2024/02/26 03:06:03;;;;;;;1.73;1.30;;;;;;;6.43;79.06;98478.13;2505426;28;20114;-81
2024/02/26 03:07:17;;;;;;;1.98;1.48;;;;;;;6.42;79.24;98481.59;2504417;28;20038;-80
2024/02/26 03:08:31;;;;;;;2.63;1.10;;;;;;;6.41;79.27;98485.09;2505974;28;20057;-81
2024/02/26 03:09:46;;;;;;;1.48;0.90;;;;;;;6.38;79.32;98487.78;2506457;28;20047;-81
2024/02/26 03:11:00;;;;;;;1.05;1.05;;;;;;;6.35;79.29;98480.09;2510422;28;20530;-80
2024/02/26 03:12:14;;;;;;;1.63;1.30;;;;;;;6.33;79.63;98482.72;2509395;28;20047;-80
2024/02/26 03:13:28;;;;;;;1.42;1.33;;;;;;;6.31;79.55;98478.44;2505679;28;20055;-80
2024/02/26 03:14:42;;;;;;;1.52;1.40;;;;;;;6.29;79.93;98478.47;2507146;28;20051;-81
2024/02/26 03:15:57;;;;;;;0.82;0.82;;;;;;;6.28;80.19;98479.38;2511678;28;20563;-80
2024/02/26 03:17:10;;;;;;;1.35;1.05;;;;;;;6.26;80.26;98481.16;2505687;28;20126;-79
2024/02/26 03:18:25;;;;;;;1.92;1.20;;;;;;;6.26;80.71;98473.38;2505993;28;20046;-80
2024/02/26 03:19:38;;;;;;;1.13;1.05;;;;;;;6.26;80.61;98464.78;2505919;28;20424;-81
2024/02/26 03:20:52;;;;;;;3.30;1.80;;;;;;;6.24;80.66;98467.38;2505925;28;20062;-80
2024/02/26 03:22:06;;;;;;;1.60;1.23;;;;;;;6.22;80.85;98463.13;2504562;28;20114;-81
2024/02/26 03:23:22;;;;;;;1.92;1.23;;;;;;;6.21;80.91;98466.63;2505310;28;20097;-81
2024/02/26 03:24:35;;;;;;;1.10;1.00;;;;;;;6.20;81.01;98465.78;2505103;28;20491;-80
2024/02/26 03:25:51;;;;;;;2.65;0.95;;;;;;;6.20;81.19;98457.19;2505557;28;20145;-81
2024/02/26 03:27:09;;;;;;;2.25;1.33;;;;;;;6.19;81.37;98452.88;2505571;28;20051;-80
2024/02/26 03:28:23;;;;;;;1.23;1.10;;;;;;;6.16;81.30;98448.63;2506456;28;20054;-82
2024/02/26 03:29:37;;;;;;;1.00;0.90;;;;;;;6.13;81.43;98455.63;2506221;28;20415;-82
2024/02/26 03:30:51;;;;;;;2.03;1.20;;;;;;;6.08;81.37;98451.41;2505354;28;20046;-81
2024/02/26 03:32:06;;;;;;;1.90;1.23;;;;;;;6.06;81.71;98449.75;2505754;28;20046;-82
2024/02/26 03:33:20;;;;;;;2.50;1.52;;;;;;;6.04;81.60;98448.91;2504992;28;20039;-80
2024/02/26 03:34:34;;;;;;;2.75;1.30;;;;;;;6.02;81.81;98448.97;2505193;28;20648;-81
2024/02/26 03:35:48;;;;;;;1.40;1.30;;;;;;;6.00;81.92;98447.31;2505166;28;20047;-80
2024/02/26 03:37:02;;;;;;;1.23;1.13;;;;;;;5.98;82.02;98442.16;2505795;28;20051;-79
2024/02/26 03:38:16;;;;;;;1.90;1.50;;;;;;;5.95;82.01;98439.66;2504735;28;20053;-81
2024/02/26 03:39:30;;;;;;;2.53;2.03;;;;;;;5.93;82.11;98441.41;2504739;28;20050;-81
2024/02/26 03:40:44;;;;;;;2.40;1.58;;;;;;;5.91;82.32;98438.00;2505120;28;20050;-81
2024/02/26 03:41:59;;;;;;;1.15;1.05;;;;;;;5.90;82.49;98438.91;2505172;28;20050;-81
2024/02/26 03:43:13;;;;;;;6.63;1.63;;;;;;;5.88;82.51;98432.91;2504602;28;20070;-81
2024/02/26 03:44:27;;;;;;;1.98;1.38;;;;;;;5.87;82.58;98434.66;2505854;28;20047;-81
2024/02/26 03:45:41;;;;;;;3.95;1.58;;;;;;;5.86;82.76;98426.91;2505415;28;20089;-81
2024/02/26 03:46:55;;;;;;;1.67;1.50;;;;;;;5.86;82.79;98437.25;2506163;28;20047;-82
2024/02/26 03:48:09;;;;;;;4.50;1.50;;;;;;;5.86;82.78;98429.50;2509344;28;20098;-81
2024/02/26 03:49:23;;;;;;;1.27;1.17;;;;;;;5.84;82.90;98432.13;2510994;28;20054;-82
2024/02/26 03:50:37;;;;;;;1.15;0.95;;;;;;;5.84;82.96;98426.97;2510109;28;20102;-80
2024/02/26 03:51:51;;;;;;;1.38;1.00;;;;;;;5.84;83.11;98423.53;2508773;28;20043;-82
2024/02/26 03:53:04;;;;;;;2.17;1.08;;;;;;;5.83;83.20;98424.41;2508469;28;20051;-82
2024/02/26 03:54:19;;;;;;;1.45;1.17;;;;;;;5.84;83.37;98423.53;2506452;28;20181;-82
2024/02/26 03:55:32;;;;;;;3.65;1.30;;;;;;;5.84;83.44;98420.94;2506370;28;20425;-81
2024/02/26 03:56:47;;;;;;;1.40;1.13;;;;;;;5.85;83.52;98422.63;2516077;28;20068;-81
2024/02/26 03:58:03;;;;;;;1.85;1.30;;;;;;;5.83;83.36;98420.06;2517629;28;20042;-81
2024/02/26 03:59:17;;;;;;;2.13;1.38;;;;;;;5.85;83.68;98415.72;2517468;28;20198;-80
2024/02/26 04:00:31;;;;;;;1.00;0.95;;;;;;;5.86;83.52;98416.56;2509294;28;20049;-81
2024/02/26 04:01:46;;;;;;;1.20;0.90;;;;;;;5.85;83.73;98417.44;2510000;28;20047;-81
2024/02/26 04:02:59;;;;;;;1.08;1.05;;;;;;;5.85;83.85;98415.72;2512816;28;20117;-81
2024/02/26 04:04:14;;;;;;;2.00;1.00;;;;;;;5.85;83.93;98415.72;2507529;28;20491;-81
2024/02/26 04:05:27;;;;;;;1.80;1.30;;;;;;;5.85;83.93;98414.88;2508017;28;20046;-82
2024/02/26 04:06:45;;;;;;;1.75;1.15;;;;;;;5.85;84.02;98414.88;2507586;28;20069;-81
2024/02/26 04:07:58;;;;;;;1.67;1.58;;;;;;;5.85;83.80;98409.69;2511785;28;20065;-80
2024/02/26 04:09:14;;;;;;;1.25;1.15;;;;;;;5.84;84.07;98414.03;2517538;28;20092;-81
2024/02/26 04:10:28;;;;;;;4.57;1.73;;;;;;;5.84;84.29;98411.44;2510415;28;20046;-81
2024/02/26 04:11:43;;;;;;;1.23;1.13;;;;;;;5.83;83.94;98412.31;2514847;28;20068;-81
2024/02/26 04:12:57;;;;;;;1.65;1.40;;;;;;;5.84;84.13;98415.75;2513119;28;20109;-80
2024/02/26 04:14:13;;;;;;;1.35;1.23;;;;;;;5.84;84.33;98414.03;2512125;28;20043;-81
2024/02/26 04:15:26;;;;;;;1.50;1.00;;;;;;;5.85;84.26;98417.44;2515329;28;20046;-81
2024/02/26 04:16:40;;;;;;;1.33;1.20;;;;;;;5.85;84.31;98414.88;2508250;28;20058;-81
2024/02/26 04:17:54;;;;;;;1.20;1.10;;;;;;;5.84;84.40;98421.78;2510887;28;20045;-80
2024/02/26 04:19:08;;;;;;;1.58;1.27;;;;;;;5.84;84.52;98420.94;2516902;28;20418;-81
2024/02/26 04:20:22;;;;;;;2.05;1.30;;;;;;;5.83;84.27;98420.06;2510760;28;20504;-81
2024/02/26 04:21:36;;;;;;;2.35;1.27;;;;;;;5.84;84.39;98426.13;2508012;28;20043;-81
2024/02/26 04:22:50;;;;;;;1.75;1.23;;;;;;;5.85;84.60;98425.22;2514395;28;20054;-81
2024/02/26 04:24:05;;;;;;;1.50;1.10;;;;;;;5.87;84.60;98428.63;2511362;28;20098;-80
2024/02/26 04:25:18;;;;;;;1.65;1.15;;;;;;;5.88;84.94;98427.72;2508641;28;20047;-82
2024/02/26 04:26:33;;;;;;;1.20;1.10;;;;;;;5.88;84.68;98433.75;2505204;28;20136;-81
2024/02/26 04:27:46;;;;;;;1.55;1.45;;;;;;;5.90;84.68;98434.56;2508688;28;20042;-82
2024/02/26 04:29:01;;;;;;;3.40;1.30;;;;;;;5.92;84.96;98434.53;2512985;28;20574;-82
2024/02/26 04:30:17;;;;;;;1.95;1.20;;;;;;;5.94;84.93;98432.81;2506554;28;20053;-83
2024/02/26 04:31:32;;;;;;;2.03;1.70;;;;;;;5.94;84.93;98432.81;2514889;28;20491;-82
2024/02/26 04:32:46;;;;;;;1.50;1.27;;;;;;;5.95;85.01;98438.81;2508242;28;20526;-82
2024/02/26 04:34:00;;;;;;;3.33;1.30;;;;;;;5.94;84.79;98440.56;2513296;28;20051;-82
2024/02/26 04:35:14;;;;;;;1.10;1.00;;;;;;;5.93;84.70;98425.88;2511277;28;20042;-81
2024/02/26 04:36:28;;;;;;;3.53;1.33;;;;;;;5.93;84.89;98438.81;2508994;28;20126;-81
2024/02/26 04:37:42;;;;;;;1.30;1.20;;;;;;;5.93;84.87;98441.41;2513674;28;20139;-80
2024/02/26 04:38:56;;;;;;;1.55;1.45;;;;;;;5.92;84.87;98434.53;2505744;28;20047;-81
2024/02/26 04:40:10;;;;;;;1.88;1.23;;;;;;;5.91;84.94;98438.00;2511357;28;20054;-82
2024/02/26 04:41:25;;;;;;;2.17;1.50;;;;;;;5.90;84.98;98444.06;2516286;28;20046;-81
2024/02/26 04:42:38;;;;;;;1.60;1.10;;;;;;;5.90;84.84;98438.91;2506257;28;20042;-82
2024/02/26 04:43:53;;;;;;;2.13;1.38;;;;;;;5.90;84.71;98446.66;2509263;28;20057;-81
2024/02/26 04:45:07;;;;;;;1.90;1.20;;;;;;;5.88;84.71;98440.66;2511834;28;20046;-81
2024/02/26 04:46:23;;;;;;;2.95;1.80;;;;;;;5.88;84.73;98444.09;2505953;28;20074;-81
2024/02/26 04:47:36;;;;;;;1.40;1.25;;;;;;;5.87;84.95;98441.56;2506072;28;20093;-82
2024/02/26 04:48:50;;;;;;;1.58;1.48;;;;;;;5.88;85.07;98443.25;2505866;28;20054;-82
2024/02/26 04:50:05;;;;;;;2.13;1.90;;;;;;;5.87;85.12;98441.56;2506753;28;20042;-81
2024/02/26 04:51:20;;;;;;;1.95;1.60;;;;;;;5.87;84.81;98446.75;2505859;28;20042;-82
2024/02/26 04:52:33;;;;;;;3.13;1.63;;;;;;;5.86;85.20;98448.50;2507191;28;20134;-80
2024/02/26 04:53:47;;;;;;;1.42;1.33;;;;;;;5.87;84.99;98447.59;2513671;28;20046;-81
2024/02/26 04:55:01;;;;;;;1.58;1.48;;;;;;;5.87;85.15;98454.50;2506628;28;20049;-82
2024/02/26 04:56:15;;;;;;;1.50;1.25;;;;;;;5.86;84.98;98451.06;2510680;28;20082;-81
2024/02/26 04:57:29;;;;;;;1.45;1.35;;;;;;;5.87;85.26;98462.28;2508847;28;20039;-81
2024/02/26 04:58:43;;;;;;;1.70;1.45;;;;;;;5.88;85.22;98461.38;2504713;28;20113;-80
2024/02/26 04:59:57;;;;;;;4.90;1.73;;;;;;;5.88;85.27;98453.59;2509630;28;20047;-80
2024/02/26 05:01:11;;;;;;;1.42;1.10;;;;;;;5.89;85.36;98463.09;2509888;28;20393;-80
2024/02/26 05:02:27;;;;;;;1.45;1.35;;;;;;;5.89;85.35;98463.09;2505936;28;20042;-81
2024/02/26 05:03:41;;;;;;;2.20;1.98;;;;;;;5.88;85.32;98470.00;2513910;28;20046;-81
2024/02/26 05:04:55;;;;;;;3.60;1.95;;;;;;;5.89;85.27;98468.28;2513427;28;20050;-82
2024/02/26 05:06:09;;;;;;;2.00;1.40;;;;;;;5.87;85.33;98465.72;2505631;28;20129;-81
2024/02/26 05:07:23;;;;;;;2.03;1.75;;;;;;;5.88;85.39;98467.41;2505106;28;20130;-83
2024/02/26 05:08:38;;;;;;;3.95;1.45;;;;;;;5.88;85.67;98464.81;2506175;28;20042;-81
2024/02/26 05:09:52;;;;;;;1.30;1.20;;;;;;;5.89;85.64;98473.44;2506373;28;20061;-81
2024/02/26 05:11:06;;;;;;;2.35;1.83;;;;;;;5.91;85.74;98476.81;2507342;28;20050;-81
2024/02/26 05:12:19;;;;;;;2.45;1.27;;;;;;;5.92;85.75;98481.13;2504880;28;20121;-81
2024/02/26 05:13:34;;;;;;;2.97;1.02;;;;;;;5.93;85.90;98476.81;2506697;28;20380;-81
2024/02/26 05:14:47;;;;;;;2.10;1.55;;;;;;;5.94;85.72;98478.53;2507052;28;20055;-81
2024/02/26 05:16:02;;;;;;;2.50;1.77;;;;;;;5.96;85.71;98481.94;2513308;28;20407;-81
2024/02/26 05:17:15;;;;;;;3.05;1.95;;;;;;;5.96;85.76;98482.78;2506563;28;20046;-81
2024/02/26 05:18:31;;;;;;;2.13;1.88;;;;;;;5.97;85.88;98484.50;2507837;28;20455;-81
2024/02/26 05:19:44;;;;;;;1.90;1.48;;;;;;;5.97;85.76;98486.25;2506818;28;20534;-82
2024/02/26 05:20:59;;;;;;;1.80;1.70;;;;;;;5.98;85.92;98488.78;2511395;28;20046;-82
2024/02/26 05:22:12;;;;;;;2.10;1.58;;;;;;;6.01;85.86;98486.09;2512099;28;20054;-83
2024/02/26 05:23:27;;;;;;;2.30;2.10;;;;;;;6.01;86.03;98491.28;2514527;28;20106;-82
2024/02/26 05:24:41;;;;;;;1.90;1.80;;;;;;;6.03;86.08;98493.84;2507853;28;20062;-81
2024/02/26 05:25:55;;;;;;;2.65;1.85;;;;;;;6.03;85.94;98484.34;2507654;28;20062;-82
2024/02/26 05:27:08;;;;;;;1.95;1.75;;;;;;;6.03;86.15;98473.97;2506555;28;20049;-81
2024/02/26 05:28:23;;;;;;;2.35;1.70;;;;;;;6.05;86.12;98484.31;2506614;28;20051;-82
2024/02/26 05:29:36;;;;;;;2.97;1.80;;;;;;;6.06;86.05;98491.16;2514499;28;20043;-82
2024/02/26 05:30:51;;;;;;;5.03;2.05;;;;;;;6.07;86.05;98493.75;2515840;28;20703;-83
2024/02/26 05:32:06;;;;;;;2.85;1.80;;;;;;;6.08;86.00;98487.66;2507726;28;20047;-81
2024/02/26 05:33:20;;;;;;;5.65;2.15;;;;;;;6.09;86.14;98496.28;2507769;28;20046;-81
2024/02/26 05:34:35;;;;;;;3.10;1.90;;;;;;;6.10;86.31;98490.22;2508970;28;20070;-82
2024/02/26 05:35:49;;;;;;;2.40;1.88;;;;;;;6.11;86.28;98489.31;2508548;28;20047;-81
2024/02/26 05:37:03;;;;;;;3.33;2.15;;;;;;;6.13;86.18;98486.69;2509540;28;20603;-83
2024/02/26 05:38:17;;;;;;;2.20;2.00;;;;;;;6.13;86.19;98494.47;2507542;28;20057;-81
2024/02/26 05:39:31;;;;;;;8.73;2.50;;;;;;;6.13;86.14;98494.47;2516042;28;20046;-81
2024/02/26 05:40:46;;;;;;;3.03;2.30;;;;;;;6.13;86.04;98494.47;2508760;28;20492;-81
2024/02/26 05:41:59;;;;;;;4.13;3.72;;;;;;;6.10;86.27;98488.47;2509504;28;20106;-81
2024/02/26 05:43:15;;;;;;;2.28;2.08;;;;;;;6.13;86.02;98497.06;2507380;28;20631;-81
2024/02/26 05:44:28;;;;;;;2.10;1.88;;;;;;;6.09;86.18;98484.19;2508382;28;20071;-80
2024/02/26 05:45:43;;;;;;;2.10;1.90;;;;;;;6.09;86.20;98484.19;2507140;28;20058;-80
2024/02/26 05:46:56;;;;;;;3.63;2.47;;;;;;;6.11;86.18;98489.31;2506908;28;20062;-81
2024/02/26 05:48:11;;;;;;;1.65;1.48;;;;;;;6.10;86.09;98493.66;2507373;28;20049;-80
2024/02/26 05:49:24;;;;;;;2.28;1.83;;;;;;;6.12;86.27;98488.44;2507257;28;20057;-81
2024/02/26 05:50:40;;;;;;;2.42;2.22;;;;;;;6.13;86.29;98497.06;2513995;28;20375;-80
2024/02/26 05:51:54;;;;;;;2.17;1.98;;;;;;;6.12;86.28;98493.63;2517339;28;20055;-81
2024/02/26 05:53:08;;;;;;;2.85;1.65;;;;;;;6.14;86.16;98496.16;2512039;28;20530;-80
2024/02/26 05:54:21;;;;;;;3.58;2.30;;;;;;;6.13;86.42;98494.47;2506318;28;20047;-81
2024/02/26 05:55:36;;;;;;;3.20;2.42;;;;;;;6.14;86.49;98490.97;2513971;28;20060;-80